Time;durP1;ratioP1;P1;durP2;ratioP2;P2;SDS_P1;SDS_P2;PMS_P1;PMS_P2;Temp;Humidity;BMP_temperature;BMP_pressure;BME280_temperature;BME280_humidity;BME280_pressure;Samples;Min_cycle;Max_cycle;Signal;HPM_P1;HPM_P2
2021/10/22 00:00:25;;;;;;;3.80;0.53;;;10.00;99.90;;;;;;6241234;22;20853;-91
2021/10/22 00:02:51;;;;;;;1.50;0.50;;;10.10;99.90;;;;;;6216897;22;20184;-93
2021/10/22 00:05:16;;;;;;;4.20;0.47;;;10.00;99.90;;;;;;6241293;22;20189;-89
2021/10/22 00:07:43;;;;;;;1.67;0.87;;;10.00;99.90;;;;;;6215532;22;20284;-91
2021/10/22 00:10:10;;;;;;;0.23;0.17;;;10.00;99.90;;;;;;6240602;22;20961;-91
2021/10/22 00:12:36;;;;;;;0.20;0.20;;;10.00;99.90;;;;;;6241362;22;20191;-93
2021/10/22 00:15:03;;;;;;;0.73;0.63;;;10.00;99.90;;;;;;6241701;22;20180;-91
2021/10/22 00:17:29;;;;;;;0.40;0.40;;;10.00;99.90;;;;;;6267749;22;20215;-92
2021/10/22 00:19:55;;;;;;;6.47;0.80;;;10.10;99.90;;;;;;6215382;22;20275;-93
2021/10/22 00:22:21;;;;;;;2.43;1.83;;;10.20;99.90;;;;;;6240413;22;20204;-93
2021/10/22 00:24:46;;;;;;;2.63;0.70;;;10.20;99.90;;;;;;6240950;22;20246;-92
2021/10/22 00:27:13;;;;;;;2.03;1.03;;;10.10;99.90;;;;;;6268471;22;20180;-94
2021/10/22 00:29:39;;;;;;;2.03;0.40;;;10.10;99.90;;;;;;6241917;22;20219;-92
2021/10/22 00:32:05;;;;;;;4.73;1.10;;;10.20;99.90;;;;;;6242589;22;20703;-92
2021/10/22 00:34:31;;;;;;;2.00;0.57;;;10.20;99.90;;;;;;6192224;22;20276;-91
2021/10/22 00:37:00;;;;;;;2.57;1.07;;;10.30;99.90;;;;;;6268809;22;20797;-91
2021/10/22 00:39:26;;;;;;;2.47;0.30;;;10.40;99.90;;;;;;6242429;22;20161;-94
2021/10/22 00:41:52;;;;;;;0.97;0.33;;;10.40;99.90;;;;;;6242284;22;20586;-89
2021/10/22 00:44:18;;;;;;;0.73;0.57;;;10.30;99.90;;;;;;6216116;22;20226;-93
2021/10/22 00:46:52;;;;;;;2.33;0.77;;;10.10;99.90;;;;;;6206121;22;20246;-94
2021/10/22 00:49:21;;;;;;;0.20;0.20;;;10.00;99.90;;;;;;6241537;22;20647;-93
2021/10/22 00:51:47;;;;;;;5.50;1.60;;;9.90;99.90;;;;;;6192224;22;20271;-95
2021/10/22 00:54:18;;;;;;;0.47;0.30;;;9.80;99.90;;;;;;6243431;22;20175;-91
2021/10/22 00:56:49;;;;;;;1.50;1.40;;;9.70;99.90;;;;;;6242448;22;20819;-94
2021/10/22 00:59:18;;;;;;;2.53;0.67;;;9.60;99.90;;;;;;6242224;22;20192;-96
2021/10/22 01:01:47;;;;;;;2.30;0.63;;;9.60;99.90;;;;;;6241813;22;20220;-96
2021/10/22 01:04:13;;;;;;;3.67;0.97;;;9.70;99.90;;;;;;6217142;22;20192;-96
2021/10/22 01:06:41;;;;;;;0.40;0.40;;;9.80;99.90;;;;;;6241014;22;20188;-94
2021/10/22 01:09:11;;;;;;;4.63;0.60;;;9.90;99.90;;;;;;6242624;22;20206;-93
2021/10/22 01:11:40;;;;;;;1.60;0.60;;;10.10;99.90;;;;;;6216961;22;20207;-91
2021/10/22 01:14:08;;;;;;;12.17;1.60;;;10.10;99.90;;;;;;6241735;22;20279;-93
2021/10/22 01:16:38;;;;;;;2.57;0.40;;;10.10;99.90;;;;;;6215978;22;20635;-92
2021/10/22 01:19:04;;;;;;;7.20;1.00;;;10.20;99.90;;;;;;6242257;22;20536;-93
2021/10/22 01:21:31;;;;;;;0.10;0.10;;;10.20;99.90;;;;;;6268344;22;20654;-91
2021/10/22 01:23:57;;;;;;;0.20;0.20;;;9.90;99.90;;;;;;6217229;22;20192;-94
2021/10/22 01:26:23;;;;;;;0.97;0.60;;;9.80;99.90;;;;;;6267605;22;20201;-93
2021/10/22 01:28:52;;;;;;;2.20;0.87;;;9.70;99.90;;;;;;6240753;22;20205;-93
2021/10/22 01:31:18;;;;;;;1.53;0.70;;;9.70;99.90;;;;;;6241177;22;20196;-93
2021/10/22 01:33:48;;;;;;;1.03;0.27;;;9.80;99.90;;;;;;6241211;22;20814;-94
2021/10/22 01:36:14;;;;;;;0.37;0.37;;;9.90;99.90;;;;;;6242878;22;20152;-95
2021/10/22 01:38:40;;;;;;;2.80;0.87;;;9.90;99.90;;;;;;6242091;22;20197;-91
2021/10/22 01:41:06;;;;;;;4.07;0.87;;;9.80;99.90;;;;;;6242369;22;20197;-94
2021/10/22 01:43:32;;;;;;;2.27;1.23;;;9.80;99.90;;;;;;6238781;22;20200;-93
2021/10/22 01:46:01;;;;;;;3.93;0.97;;;10.00;99.90;;;;;;6239867;22;20192;-94
2021/10/22 01:48:26;;;;;;;0.30;0.30;;;10.10;99.90;;;;;;6213227;22;20160;-94
2021/10/22 01:50:52;;;;;;;2.63;0.20;;;10.10;99.90;;;;;;6240732;22;20157;-92
2021/10/22 01:53:19;;;;;;;1.93;1.73;;;10.10;99.90;;;;;;6216227;22;20924;-92
2021/10/22 01:55:48;;;;;;;0.50;0.50;;;10.00;99.90;;;;;;6241747;22;20227;-96
2021/10/22 01:58:20;;;;;;;11.23;0.70;;;9.90;99.90;;;;;;6216937;22;20283;-93
2021/10/22 02:00:46;;;;;;;1.83;0.80;;;9.90;99.90;;;;;;6267903;22;20250;-95
2021/10/22 02:03:14;;;;;;;2.03;0.80;;;9.80;99.90;;;;;;6242247;22;20177;-93
2021/10/22 02:05:40;;;;;;;1.80;0.43;;;9.90;99.90;;;;;;6237422;22;20276;-96
2021/10/22 02:08:06;;;;;;;1.83;1.23;;;10.00;99.90;;;;;;6236278;22;20299;-91
2021/10/22 02:10:32;;;;;;;0.10;0.10;;;10.10;99.90;;;;;;6238026;22;20279;-95
2021/10/22 02:12:59;;;;;;;2.13;1.20;;;10.30;99.90;;;;;;6240467;22;20238;-92
2021/10/22 02:15:25;;;;;;;0.80;0.50;;;10.40;99.90;;;;;;6239647;22;20160;-92
2021/10/22 02:17:51;;;;;;;3.50;1.30;;;10.40;99.90;;;;;;6215970;22;20187;-92
2021/10/22 02:20:17;;;;;;;3.50;0.73;;;10.40;99.90;;;;;;6266497;22;20207;-93
2021/10/22 02:22:43;;;;;;;1.70;0.53;;;10.30;99.90;;;;;;6267359;22;20288;-92
2021/10/22 02:25:09;;;;;;;3.57;1.80;;;10.40;99.90;;;;;;6227410;22;20322;-93
2021/10/22 02:27:35;;;;;;;1.50;1.30;;;10.50;99.90;;;;;;6239530;22;20164;-94
2021/10/22 02:30:06;;;;;;;2.23;0.60;;;10.70;99.90;;;;;;6212641;22;20161;-93
2021/10/22 02:32:32;;;;;;;1.40;0.47;;;10.70;99.90;;;;;;6237180;22;20208;-93
2021/10/22 02:34:58;;;;;;;2.23;0.43;;;10.70;99.90;;;;;;6236572;22;20200;-94
2021/10/22 02:37:24;;;;;;;3.60;0.60;;;10.20;99.90;;;;;;6237209;22;20188;-92
2021/10/22 02:39:50;;;;;;;1.07;0.97;;;9.90;99.90;;;;;;6238770;22;20192;-91
2021/10/22 02:42:16;;;;;;;0.47;0.47;;;9.70;99.90;;;;;;6242083;22;20184;-94
2021/10/22 02:44:42;;;;;;;1.80;0.30;;;9.60;99.90;;;;;;6240328;22;20246;-92
2021/10/22 02:47:10;;;;;;;0.13;0.13;;;9.70;99.90;;;;;;6240507;22;20528;-94
2021/10/22 02:49:36;;;;;;;6.13;0.90;;;9.80;99.90;;;;;;6240853;22;20193;-92
2021/10/22 02:52:04;;;;;;;0.10;0.10;;;9.80;99.90;;;;;;6241771;22;20196;-90
2021/10/22 02:54:30;;;;;;;1.07;0.40;;;9.70;99.90;;;;;;6226628;22;20157;-90
2021/10/22 02:56:56;;;;;;;10.33;1.23;;;9.60;99.90;;;;;;6241943;22;20256;-95
2021/10/22 02:59:22;;;;;;;1.07;0.57;;;9.60;99.90;;;;;;6240502;22;20200;-93
2021/10/22 03:01:48;;;;;;;0.20;0.20;;;9.60;99.90;;;;;;6241193;22;20271;-92
2021/10/22 03:04:14;;;;;;;0.67;0.50;;;9.70;99.90;;;;;;6191564;22;20467;-94
2021/10/22 03:06:42;;;;;;;2.73;0.73;;;9.70;99.90;;;;;;6240340;22;20571;-92
2021/10/22 03:09:08;;;;;;;2.20;0.80;;;9.80;99.90;;;;;;6216774;22;20259;-93
2021/10/22 03:11:34;;;;;;;2.13;0.70;;;10.10;99.90;;;;;;6241059;22;20250;-93
2021/10/22 03:14:00;;;;;;;0.93;0.77;;;10.20;99.90;;;;;;6190900;22;20215;-95
2021/10/22 03:16:26;;;;;;;1.00;0.47;;;10.30;99.90;;;;;;6240714;22;20529;-95
2021/10/22 03:18:51;;;;;;;12.73;0.60;;;10.30;99.90;;;;;;6240764;22;20192;-93
2021/10/22 03:21:19;;;;;;;1.97;0.90;;;10.40;99.90;;;;;;6242121;22;20599;-93
2021/10/22 03:23:45;;;;;;;0.73;0.50;;;10.40;99.90;;;;;;6214731;22;20704;-92
2021/10/22 03:26:11;;;;;;;1.00;0.47;;;10.40;99.90;;;;;;6240913;22;20246;-93
2021/10/22 03:28:39;;;;;;;1.00;0.37;;;10.40;99.90;;;;;;6267157;22;20196;-91
2021/10/22 03:31:05;;;;;;;0.70;0.57;;;10.30;99.90;;;;;;6242007;22;20408;-95
2021/10/22 03:33:31;;;;;;;1.03;0.77;;;10.00;99.90;;;;;;6240979;22;20162;-93
2021/10/22 03:35:57;;;;;;;0.97;0.13;;;9.60;99.90;;;;;;6242270;22;20239;-90
2021/10/22 03:38:25;;;;;;;0.27;0.27;;;9.30;99.90;;;;;;6241043;22;20512;-90
2021/10/22 03:40:51;;;;;;;0.30;0.30;;;9.20;99.90;;;;;;6240698;22;20296;-94
2021/10/22 03:43:17;;;;;;;0.40;0.40;;;9.30;99.90;;;;;;6240307;22;20280;-91
2021/10/22 03:45:43;;;;;;;2.00;1.80;;;9.30;99.90;;;;;;6240088;22;20189;-93
2021/10/22 03:48:08;;;;;;;0.20;0.20;;;9.30;99.90;;;;;;6241683;22;20354;-95
2021/10/22 03:50:34;;;;;;;1.83;0.70;;;9.30;99.90;;;;;;6215105;22;20283;-91
2021/10/22 03:53:00;;;;;;;3.50;2.20;;;9.40;99.90;;;;;;6215429;22;20238;-90
2021/10/22 03:55:26;;;;;;;6.53;0.43;;;9.50;99.90;;;;;;6240414;22;20924;-91
2021/10/22 03:57:51;;;;;;;3.27;1.30;;;9.60;99.90;;;;;;6215064;22;20195;-93
2021/10/22 04:00:18;;;;;;;0.70;0.70;;;9.70;99.90;;;;;;6240619;22;20209;-90
2021/10/22 04:02:44;;;;;;;0.00;0.00;;;9.80;99.90;;;;;;6240696;22;20184;-93
2021/10/22 04:05:10;;;;;;;0.20;0.20;;;9.70;99.90;;;;;;6217475;22;20196;-90
2021/10/22 04:07:36;;;;;;;0.20;0.20;;;9.70;99.90;;;;;;6217019;22;20222;-90
2021/10/22 04:10:06;;;;;;;0.20;0.20;;;9.80;99.90;;;;;;6217169;22;20293;-92
2021/10/22 04:12:33;;;;;;;0.30;0.30;;;9.70;99.90;;;;;;6242342;22;20212;-91
2021/10/22 04:14:59;;;;;;;0.20;0.20;;;9.70;99.90;;;;;;6242753;22;20157;-90
2021/10/22 04:17:25;;;;;;;0.57;0.57;;;9.70;99.90;;;;;;6239327;22;20193;-91
2021/10/22 04:19:51;;;;;;;1.53;0.50;;;9.80;99.90;;;;;;6241170;22;20196;-93
2021/10/22 04:22:16;;;;;;;0.00;0.00;;;9.80;99.90;;;;;;6216841;22;20205;-93
2021/10/22 04:24:42;;;;;;;0.23;0.20;;;9.80;99.90;;;;;;6268925;22;20903;-91
2021/10/22 04:27:08;;;;;;;0.57;0.30;;;9.90;99.90;;;;;;6218053;22;20164;-88
2021/10/22 04:29:34;;;;;;;3.23;0.70;;;10.00;99.90;;;;;;6191700;22;20192;-94
2021/10/22 04:32:00;;;;;;;0.33;0.33;;;10.10;99.90;;;;;;6241677;22;20198;-90
2021/10/22 04:34:28;;;;;;;4.33;0.80;;;10.00;99.90;;;;;;6242580;22;20646;-92
2021/10/22 04:37:02;;;;;;;1.20;0.40;;;9.90;99.90;;;;;;6191858;22;20657;-89
2021/10/22 04:42:12;;;;;;;0.50;0.43;;;9.70;99.90;;;;;;6269484;22;20238;-94
2021/10/22 04:44:38;;;;;;;1.90;1.03;;;9.80;99.90;;;;;;6267806;22;20192;-90
2021/10/22 04:47:04;;;;;;;0.50;0.50;;;9.80;99.90;;;;;;6241379;22;20224;-92
2021/10/22 04:49:33;;;;;;;4.77;0.50;;;9.80;99.90;;;;;;6241495;22;20219;-93
2021/10/22 04:51:59;;;;;;;5.53;1.07;;;9.80;99.90;;;;;;6216530;22;20215;-91
2021/10/22 04:54:24;;;;;;;0.20;0.20;;;9.70;99.90;;;;;;6217038;22;20153;-90
2021/10/22 04:56:52;;;;;;;2.53;1.23;;;9.70;99.90;;;;;;6268449;22;20528;-95
2021/10/22 04:59:17;;;;;;;0.30;0.13;;;9.80;99.90;;;;;;6216519;22;20559;-92
2021/10/22 05:01:43;;;;;;;0.20;0.20;;;9.80;99.90;;;;;;6240992;22;20196;-93
2021/10/22 05:04:12;;;;;;;3.30;0.50;;;9.80;99.90;;;;;;6242240;22;20208;-93
2021/10/22 05:06:38;;;;;;;5.77;0.90;;;9.90;99.90;;;;;;6240280;22;20916;-93
2021/10/22 05:09:04;;;;;;;3.53;0.73;;;9.90;99.90;;;;;;6241550;22;20176;-91
2021/10/22 05:11:32;;;;;;;1.97;0.60;;;10.00;99.90;;;;;;6240431;22;20234;-93
2021/10/22 05:13:57;;;;;;;1.07;0.30;;;10.00;99.90;;;;;;6238018;22;20232;-92
2021/10/22 05:16:24;;;;;;;4.37;0.77;;;10.10;99.90;;;;;;6264805;22;20277;-91
2021/10/22 05:18:50;;;;;;;0.90;0.40;;;10.10;99.90;;;;;;6238500;22;20196;-92
2021/10/22 05:21:15;;;;;;;3.50;0.93;;;10.00;99.90;;;;;;6213637;22;20153;-88
2021/10/22 05:23:41;;;;;;;1.53;1.03;;;10.00;99.90;;;;;;6239026;22;20204;-91
2021/10/22 05:26:07;;;;;;;3.80;0.87;;;9.90;99.90;;;;;;6216558;22;20270;-93
2021/10/22 05:28:33;;;;;;;25.13;1.23;;;9.80;99.90;;;;;;6241846;22;20523;-93
2021/10/22 05:30:58;;;;;;;0.77;0.77;;;9.80;99.90;;;;;;6242701;22;20254;-92
2021/10/22 05:33:24;;;;;;;0.40;0.30;;;9.80;99.90;;;;;;6217114;22;20161;-91
2021/10/22 05:35:50;;;;;;;1.17;0.47;;;9.70;99.90;;;;;;6242495;22;20496;-91
2021/10/22 05:38:16;;;;;;;0.57;0.53;;;9.80;99.90;;;;;;6268114;22;20193;-91
2021/10/22 05:40:42;;;;;;;5.00;1.13;;;9.70;99.90;;;;;;6216932;22;20498;-92
2021/10/22 05:43:08;;;;;;;1.83;0.87;;;9.70;99.90;;;;;;6216439;22;20242;-93
2021/10/22 05:45:33;;;;;;;1.60;0.57;;;9.70;99.90;;;;;;6268364;22;20152;-94
2021/10/22 05:47:59;;;;;;;1.73;0.67;;;9.80;99.90;;;;;;6214531;22;20250;-92
2021/10/22 05:50:25;;;;;;;1.20;0.47;;;9.90;99.90;;;;;;6212666;22;20200;-92
2021/10/22 05:52:51;;;;;;;2.00;0.90;;;9.90;99.90;;;;;;6238330;22;20254;-92
2021/10/22 05:55:17;;;;;;;1.13;0.40;;;9.90;99.90;;;;;;6265596;22;20193;-92
2021/10/22 05:57:42;;;;;;;7.17;0.50;;;9.80;99.90;;;;;;6213496;22;20188;-91
2021/10/22 06:00:09;;;;;;;0.70;0.70;;;9.70;99.90;;;;;;6214797;22;20161;-90
2021/10/22 06:02:40;;;;;;;0.53;0.53;;;9.60;99.90;;;;;;6215526;22;20228;-93
2021/10/22 06:05:06;;;;;;;0.37;0.13;;;9.50;99.90;;;;;;6242013;22;20280;-91
2021/10/22 06:07:31;;;;;;;0.33;0.23;;;9.60;99.90;;;;;;6211446;22;20232;-93
2021/10/22 06:09:57;;;;;;;3.03;1.00;;;9.70;99.90;;;;;;6186675;23;20640;-91
2021/10/22 06:12:24;;;;;;;0.90;0.90;;;9.90;99.90;;;;;;6237082;22;20250;-90
2021/10/22 06:14:50;;;;;;;2.03;0.83;;;10.00;99.90;;;;;;6187755;23;20522;-93
2021/10/22 06:17:16;;;;;;;1.13;0.47;;;10.10;99.90;;;;;;6211906;23;20253;-91
2021/10/22 06:19:45;;;;;;;1.40;1.30;;;10.10;99.90;;;;;;6211849;23;20662;-90
2021/10/22 06:25:08;;;;;;;2.67;0.87;;;10.00;99.90;;;;;;6185368;22;20216;-92
2021/10/22 06:27:37;;;;;;;0.50;0.50;;;10.00;99.90;;;;;;6209370;22;20244;-92
2021/10/22 06:30:03;;;;;;;0.50;0.50;;;10.00;99.90;;;;;;6235358;23;20729;-91
2021/10/22 06:32:29;;;;;;;4.33;0.77;;;10.10;99.90;;;;;;6233814;22;20209;-92
2021/10/22 06:34:57;;;;;;;1.03;0.60;;;10.30;99.90;;;;;;6235049;22;20193;-89
2021/10/22 06:37:22;;;;;;;1.07;1.07;;;10.30;99.90;;;;;;6213232;23;20236;-91
2021/10/22 06:39:50;;;;;;;0.20;0.20;;;10.30;99.90;;;;;;6236878;22;20683;-94
2021/10/22 06:42:17;;;;;;;2.00;1.67;;;10.30;99.90;;;;;;6215463;23;20188;-94
2021/10/22 06:44:43;;;;;;;4.33;0.40;;;10.50;99.90;;;;;;6238972;22;20263;-92
2021/10/22 06:47:09;;;;;;;0.83;0.77;;;10.70;99.90;;;;;;6238355;22;20216;-90
2021/10/22 06:49:35;;;;;;;2.43;0.77;;;10.70;99.90;;;;;;6237781;22;20197;-93
2021/10/22 06:52:01;;;;;;;0.47;0.47;;;10.90;99.90;;;;;;6237284;22;20201;-94
2021/10/22 06:54:27;;;;;;;0.50;0.50;;;11.00;99.90;;;;;;6237429;22;20868;-94
2021/10/22 06:56:54;;;;;;;0.40;0.40;;;10.80;99.90;;;;;;6237515;23;20232;-90
2021/10/22 06:59:19;;;;;;;0.83;0.70;;;10.60;99.90;;;;;;6238495;22;20193;-90
2021/10/22 07:01:45;;;;;;;2.20;0.90;;;10.50;99.90;;;;;;6188145;23;20636;-94
2021/10/22 07:04:12;;;;;;;0.87;0.87;;;10.50;99.90;;;;;;6237461;22;20258;-92
2021/10/22 07:09:23;;;;;;;3.20;0.27;;;10.30;99.90;;;;;;6237097;22;20158;-91
2021/10/22 07:11:50;;;;;;;3.27;1.07;;;10.30;99.90;;;;;;6188452;23;20169;-90
2021/10/22 07:14:16;;;;;;;1.70;0.97;;;10.30;99.90;;;;;;6216363;23;20193;-90
2021/10/22 07:16:42;;;;;;;1.23;0.37;;;10.20;99.90;;;;;;6221643;23;20219;-91
2021/10/22 07:19:08;;;;;;;2.40;1.00;;;9.90;99.90;;;;;;6233433;23;20195;-93
2021/10/22 07:21:38;;;;;;;1.63;0.67;;;9.60;99.90;;;;;;6239267;22;20173;-91
2021/10/22 07:24:12;;;;;;;2.20;2.00;;;9.40;99.90;;;;;;6214422;23;20201;-93
2021/10/22 07:26:37;;;;;;;5.40;1.03;;;9.40;99.90;;;;;;6234740;22;20223;-93
2021/10/22 07:29:03;;;;;;;1.20;0.67;;;9.60;99.90;;;;;;6239508;22;20197;-94
2021/10/22 07:31:29;;;;;;;0.40;0.40;;;9.70;99.90;;;;;;6236753;22;20197;-92
2021/10/22 07:33:55;;;;;;;0.63;0.63;;;9.90;99.90;;;;;;6238762;22;20193;-91
2021/10/22 07:36:21;;;;;;;0.77;0.73;;;9.90;99.90;;;;;;6187164;22;20188;-89
2021/10/22 07:38:47;;;;;;;0.93;0.67;;;9.90;99.90;;;;;;6211299;23;20157;-89
2021/10/22 07:41:14;;;;;;;2.27;1.13;;;10.00;99.90;;;;;;6236748;22;20197;-89
2021/10/22 07:43:42;;;;;;;1.43;0.87;;;10.00;99.90;;;;;;6211925;23;20229;-91
2021/10/22 07:46:08;;;;;;;2.97;0.63;;;10.00;99.90;;;;;;6213171;23;20223;-89
2021/10/22 07:48:34;;;;;;;4.07;0.50;;;10.00;99.90;;;;;;6237379;22;20153;-87
2021/10/22 07:51:00;;;;;;;1.80;0.53;;;9.90;99.90;;;;;;6237664;23;20697;-88
2021/10/22 07:53:26;;;;;;;2.73;0.67;;;9.90;99.90;;;;;;6212261;23;20205;-93
2021/10/22 07:55:52;;;;;;;2.67;1.43;;;9.90;99.90;;;;;;6213961;23;20193;-88
2021/10/22 07:58:18;;;;;;;3.80;0.97;;;10.00;99.90;;;;;;6241914;22;20193;-89
2021/10/22 08:00:44;;;;;;;4.13;0.97;;;10.10;99.90;;;;;;6215922;23;20231;-89
2021/10/22 08:03:10;;;;;;;2.53;0.60;;;10.40;99.90;;;;;;6239850;23;20193;-93
2021/10/22 08:05:36;;;;;;;1.13;0.60;;;10.90;99.90;;;;;;6239951;22;20216;-90
2021/10/22 08:08:03;;;;;;;1.80;1.60;;;11.30;99.90;;;;;;6185309;23;20239;-94
2021/10/22 08:10:29;;;;;;;2.53;0.47;;;11.60;99.90;;;;;;6213583;23;20208;-89
2021/10/22 08:12:55;;;;;;;0.47;0.30;;;11.80;99.90;;;;;;6212436;23;20273;-89
2021/10/22 08:15:21;;;;;;;4.37;1.20;;;11.30;99.90;;;;;;6211555;22;20165;-87
2021/10/22 08:17:47;;;;;;;1.07;0.80;;;11.00;99.90;;;;;;6239863;22;20254;-91
2021/10/22 08:20:20;;;;;;;0.53;0.40;;;11.60;99.90;;;;;;6189966;23;20212;-89
2021/10/22 08:22:46;;;;;;;3.37;0.60;;;11.70;99.90;;;;;;6215302;23;20205;-90
2021/10/22 08:25:13;;;;;;;1.30;0.83;;;11.60;99.90;;;;;;6188000;23;20829;-89
2021/10/22 08:27:42;;;;;;;3.33;0.83;;;11.60;99.90;;;;;;6237870;22;20197;-89
2021/10/22 08:30:11;;;;;;;2.03;0.33;;;11.50;99.90;;;;;;6236791;23;20165;-90
2021/10/22 08:32:38;;;;;;;1.40;0.47;;;11.50;99.90;;;;;;6211823;22;20290;-91
2021/10/22 08:35:05;;;;;;;4.77;0.80;;;11.40;99.90;;;;;;6238308;22;20406;-90
2021/10/22 08:37:38;;;;;;;3.60;1.70;;;11.40;99.90;;;;;;6187098;23;20200;-91
2021/10/22 08:40:05;;;;;;;0.40;0.40;;;11.60;99.90;;;;;;6211842;23;20525;-91
2021/10/22 08:42:31;;;;;;;3.37;0.30;;;12.00;99.90;;;;;;6236323;22;20197;-91
2021/10/22 08:44:57;;;;;;;3.30;1.07;;;12.20;99.90;;;;;;6186942;23;20259;-92
2021/10/22 08:47:28;;;;;;;7.57;1.27;;;12.40;99.90;;;;;;6214292;23;20189;-91
2021/10/22 08:49:58;;;;;;;2.53;1.47;;;12.20;99.90;;;;;;6240103;22;20251;-93
2021/10/22 08:52:26;;;;;;;1.03;0.90;;;12.00;99.90;;;;;;6239547;22;20197;-94
2021/10/22 08:54:52;;;;;;;4.40;0.87;;;12.00;99.90;;;;;;6240169;22;20219;-94
2021/10/22 08:57:18;;;;;;;6.83;0.83;;;12.30;99.90;;;;;;6215007;22;20157;-93
2021/10/22 08:59:44;;;;;;;2.67;0.83;;;12.00;99.90;;;;;;6189213;23;20215;-94
2021/10/22 09:02:25;;;;;;;0.30;0.30;;;11.70;99.90;;;;;;6236644;22;20205;-93
2021/10/22 09:04:52;;;;;;;3.67;0.77;;;11.40;99.90;;;;;;6237067;22;20207;-93
2021/10/22 09:07:19;;;;;;;1.93;0.50;;;11.30;99.90;;;;;;6247860;22;20205;-91
2021/10/22 09:09:47;;;;;;;8.23;0.87;;;11.40;99.90;;;;;;6218105;22;20207;-92
2021/10/22 09:12:13;;;;;;;1.00;0.40;;;11.50;99.90;;;;;;6244387;22;20198;-92
2021/10/22 09:14:58;;;;;;;5.00;0.77;;;11.70;99.90;;;;;;6221200;22;20335;-92
2021/10/22 09:17:35;;;;;;;0.23;0.23;;;10.90;99.90;;;;;;6274882;22;20248;-95
2021/10/22 09:20:00;;;;;;;0.43;0.43;;;10.40;99.90;;;;;;6247339;22;20214;-93
2021/10/22 09:22:30;;;;;;;4.90;0.47;;;10.50;99.90;;;;;;6221814;22;20208;-92
2021/10/22 09:25:01;;;;;;;2.37;0.60;;;10.70;99.90;;;;;;6275575;22;20189;-92
2021/10/22 09:27:39;;;;;;;4.57;0.70;;;10.90;99.90;;;;;;6248739;22;20151;-92
2021/10/22 09:30:09;;;;;;;2.07;0.43;;;11.10;99.90;;;;;;6248324;22;20596;-95
2021/10/22 09:32:45;;;;;;;0.70;0.50;;;10.80;99.90;;;;;;6274315;22;20643;-93
2021/10/22 09:35:11;;;;;;;2.40;0.23;;;10.60;99.90;;;;;;6246004;22;20203;-94
2021/10/22 09:37:38;;;;;;;0.53;0.23;;;10.60;99.90;;;;;;6265868;22;20181;-94
2021/10/22 09:40:06;;;;;;;0.10;0.10;;;10.30;99.90;;;;;;6243725;22;20201;-93
2021/10/22 09:42:33;;;;;;;1.03;0.20;;;10.60;99.90;;;;;;6238994;22;20180;-94
2021/10/22 09:44:59;;;;;;;2.10;0.47;;;10.80;99.90;;;;;;6218780;22;20168;-94
2021/10/22 09:47:25;;;;;;;1.77;0.60;;;10.80;99.90;;;;;;6244522;22;20192;-94
2021/10/22 09:50:02;;;;;;;3.60;0.37;;;10.80;99.90;;;;;;6217213;22;20651;-95
2021/10/22 09:52:29;;;;;;;5.93;2.13;;;10.80;99.90;;;;;;6271031;22;20200;-95
2021/10/22 09:55:06;;;;;;;0.37;0.23;;;10.90;99.90;;;;;;6242533;22;20204;-95
2021/10/22 09:57:32;;;;;;;0.33;0.23;;;11.00;99.90;;;;;;6243580;22;20152;-92
2021/10/22 10:00:25;;;;;;;3.20;0.57;;;11.00;99.90;;;;;;6223417;22;20597;-95
2021/10/22 10:02:51;;;;;;;0.27;0.20;;;11.10;99.90;;;;;;6246918;22;20200;-94
2021/10/22 10:05:18;;;;;;;2.93;0.70;;;10.90;99.90;;;;;;6272858;22;20210;-94
2021/10/22 10:07:46;;;;;;;0.87;0.43;;;10.80;99.90;;;;;;6241942;22;20907;-93
2021/10/22 10:10:14;;;;;;;18.50;0.50;;;10.70;99.90;;;;;;6242642;22;20196;-93
2021/10/22 10:12:41;;;;;;;0.10;0.10;;;10.80;99.90;;;;;;6240689;22;20193;-90
2021/10/22 10:15:10;;;;;;;6.23;1.07;;;10.90;99.90;;;;;;6241330;23;20156;-93
2021/10/22 10:17:46;;;;;;;3.20;0.77;;;11.10;99.90;;;;;;6240553;22;20291;-96
2021/10/22 10:20:19;;;;;;;1.50;0.70;;;11.20;99.90;;;;;;6241112;22;20208;-94
2021/10/22 10:22:48;;;;;;;0.80;0.60;;;11.50;99.90;;;;;;6217333;23;20539;-93
2021/10/22 10:25:16;;;;;;;1.10;0.73;;;11.50;99.90;;;;;;6240416;22;20201;-93
2021/10/22 10:27:55;;;;;;;0.20;0.20;;;11.40;99.90;;;;;;6215792;22;20247;-90
2021/10/22 10:30:28;;;;;;;3.60;0.90;;;11.60;99.90;;;;;;6238742;22;20470;-91
2021/10/22 10:32:54;;;;;;;4.37;1.13;;;11.70;99.90;;;;;;6238691;23;20149;-91
2021/10/22 10:35:20;;;;;;;0.30;0.30;;;11.70;99.90;;;;;;6239931;22;20259;-92
2021/10/22 10:37:54;;;;;;;0.53;0.43;;;11.80;99.90;;;;;;6213063;23;20272;-91
2021/10/22 10:40:27;;;;;;;0.20;0.20;;;11.90;99.90;;;;;;6237769;22;20288;-94
2021/10/22 10:42:55;;;;;;;6.30;0.43;;;12.10;99.90;;;;;;6237839;22;20846;-93
2021/10/22 10:45:21;;;;;;;2.57;1.30;;;12.10;99.90;;;;;;6239705;22;20170;-90
2021/10/22 10:47:50;;;;;;;1.60;0.47;;;12.40;99.90;;;;;;6240233;22;20472;-91
2021/10/22 10:50:38;;;;;;;0.13;0.13;;;12.70;99.90;;;;;;6238132;22;20208;-90
2021/10/22 10:53:05;;;;;;;3.37;0.53;;;12.70;99.90;;;;;;6238627;22;20249;-90
2021/10/22 10:55:32;;;;;;;0.57;0.50;;;11.60;99.90;;;;;;6191350;23;20209;-94
2021/10/22 10:58:12;;;;;;;1.67;0.43;;;11.10;99.90;;;;;;6240530;22;20197;-95
2021/10/22 11:00:57;;;;;;;2.93;0.50;;;10.90;99.90;;;;;;6241842;22;20196;-93
2021/10/22 11:03:42;;;;;;;0.93;0.50;;;10.70;99.90;;;;;;6238949;22;20220;-95
2021/10/22 11:06:09;;;;;;;0.40;0.33;;;10.20;99.90;;;;;;6241001;23;20161;-93
2021/10/22 11:08:37;;;;;;;4.47;1.23;;;10.10;99.90;;;;;;6244580;22;20288;-93
2021/10/22 11:13:45;;;;;;;0.50;0.30;;;10.20;99.90;;;;;;6245136;22;20667;-94
2021/10/22 11:16:39;;;;;;;4.17;0.60;;;10.40;99.90;;;;;;6245324;22;20231;-92
2021/10/22 11:19:17;;;;;;;0.10;0.10;;;10.70;99.90;;;;;;6244680;22;20197;-95
2021/10/22 11:21:46;;;;;;;0.50;0.50;;;11.00;99.90;;;;;;6240691;22;20197;-95
2021/10/22 11:24:31;;;;;;;0.77;0.77;;;11.20;99.90;;;;;;6246709;23;20192;-91
2021/10/22 11:27:04;;;;;;;3.37;0.30;;;11.10;99.90;;;;;;6243697;23;20691;-94
2021/10/22 11:29:35;;;;;;;1.10;0.23;;;10.70;99.90;;;;;;6240914;22;20579;-93
2021/10/22 11:32:11;;;;;;;0.30;0.23;;;10.40;99.90;;;;;;6242531;22;20208;-93
2021/10/22 11:34:49;;;;;;;0.67;0.60;;;10.40;99.90;;;;;;6241161;22;20189;-91
2021/10/22 11:37:18;;;;;;;1.80;0.50;;;10.40;99.90;;;;;;6230561;22;20196;-93
2021/10/22 11:39:47;;;;;;;0.13;0.13;;;10.40;99.90;;;;;;6243639;22;20189;-92
2021/10/22 11:42:21;;;;;;;4.23;1.33;;;11.10;99.90;;;;;;6241644;23;20149;-93
2021/10/22 11:44:52;;;;;;;0.00;0.00;;;11.70;99.90;;;;;;6241122;23;20774;-90
2021/10/22 11:47:19;;;;;;;1.70;0.40;;;12.00;99.90;;;;;;6244035;22;20197;-93
2021/10/22 11:49:45;;;;;;;0.20;0.20;;;12.10;99.90;;;;;;6221020;23;20245;-93
2021/10/22 11:52:17;;;;;;;0.40;0.40;;;12.10;99.90;;;;;;6248228;22;20189;-91
2021/10/22 11:54:49;;;;;;;2.13;0.40;;;12.10;99.90;;;;;;6247293;22;20268;-90
2021/10/22 11:57:18;;;;;;;0.27;0.27;;;11.80;99.90;;;;;;6247925;23;20154;-93
2021/10/22 11:59:48;;;;;;;0.30;0.20;;;11.70;99.90;;;;;;6248472;23;20231;-92
2021/10/22 12:02:14;;;;;;;0.23;0.23;;;11.60;99.90;;;;;;6247016;22;20201;-92
2021/10/22 12:04:41;;;;;;;0.20;0.20;;;11.80;99.90;;;;;;6263002;22;20197;-93
2021/10/22 12:07:10;;;;;;;0.33;0.33;;;12.00;99.90;;;;;;6261703;22;20224;-95
2021/10/22 12:09:41;;;;;;;3.23;0.40;;;12.00;99.90;;;;;;6254275;22;20153;-95
2021/10/22 12:12:08;;;;;;;0.00;0.00;;;12.10;99.90;;;;;;6243776;23;20591;-93
2021/10/22 12:14:43;;;;;;;2.43;0.10;;;12.00;99.90;;;;;;6230197;22;20196;-94
2021/10/22 12:17:16;;;;;;;0.10;0.10;;;11.70;99.90;;;;;;6244034;22;20276;-94
2021/10/22 12:19:44;;;;;;;0.10;0.10;;;11.40;99.90;;;;;;6241288;22;20198;-96
2021/10/22 12:22:13;;;;;;;0.10;0.10;;;11.30;99.90;;;;;;6241911;22;20196;-96
2021/10/22 12:24:41;;;;;;;1.50;0.47;;;11.30;99.90;;;;;;6245159;22;20233;-94
2021/10/22 12:27:08;;;;;;;0.67;0.67;;;11.50;99.90;;;;;;6241786;23;20157;-91
2021/10/22 12:29:53;;;;;;;2.30;0.70;;;11.50;99.90;;;;;;6213416;23;20738;-92
2021/10/22 12:32:54;;;;;;;5.20;0.50;;;11.50;99.90;;;;;;6237615;22;20223;-95
2021/10/22 12:35:29;;;;;;;0.67;0.60;;;11.40;99.90;;;;;;6211090;23;20204;-94
2021/10/22 12:38:03;;;;;;;0.60;0.30;;;11.50;99.90;;;;;;6241023;22;20192;-90
2021/10/22 12:40:38;;;;;;;0.53;0.20;;;11.70;99.90;;;;;;6241783;22;20242;-93
2021/10/22 12:43:07;;;;;;;0.10;0.10;;;11.60;99.90;;;;;;6242500;22;20201;-93
2021/10/22 12:45:38;;;;;;;1.43;0.53;;;11.60;99.90;;;;;;6246125;22;20161;-94
2021/10/22 12:48:07;;;;;;;7.20;0.30;;;11.70;99.90;;;;;;6242389;23;20153;-91
2021/10/22 12:50:36;;;;;;;0.70;0.37;;;11.60;99.90;;;;;;6243140;22;20182;-91
2021/10/22 12:53:08;;;;;;;0.93;0.53;;;11.40;99.90;;;;;;6245286;22;20748;-94
2021/10/22 12:55:34;;;;;;;1.17;0.80;;;11.00;99.90;;;;;;6242229;22;20198;-94
2021/10/22 12:58:14;;;;;;;0.50;0.50;;;10.60;99.90;;;;;;6235401;22;20185;-91
2021/10/22 13:00:41;;;;;;;0.40;0.40;;;10.50;99.90;;;;;;6221700;22;20183;-91
2021/10/22 13:03:07;;;;;;;0.10;0.10;;;10.40;99.90;;;;;;6233532;23;20401;-93
2021/10/22 13:05:33;;;;;;;0.20;0.20;;;10.40;99.90;;;;;;6234354;22;20326;-94